Burtonville, Kentucky
Current Conditions -  °F | °C
As of 11:15 PM on Tuesday 25 Nov 2014 (Local Time) from KFGX Reporting Station
Clear Clear  
Wind Chill: -1°   Ceiling: Unl
Heat Index:   Visibility: 10mi
Dew Point: -2°   Wind: 5mph
Humidity: 82%   Direction: 20°NNE
Pressure: 30.17"   Gusts: NA
Location:  38.5845°N, 83.5468°W
Report Text: KFGX 260415Z AUTO 02004KT 10SM CLR 01/M02 A3017 RMK AO2 T00101018
Loading
Personal Weather Stations






























Interactive Weather Map New forecast layout! Learn more

10-Day Weather Forecast

Advertisements
Track Severe Weather on mobile